Pagrindinis puslapis
METAR-TAF:

METAR-TAF

Oro uostai :

Makasas, Ekvadoras

platuma: 02-17-57-S, ilguma: 078-07-15-W, Aukštis: 1052 m

Dabartinis oras

Ataskaita buvo paskelbta 47 minutes, ne 22:00 UTC
Vėjas 4 kt iš Pietvakarių
Temperatūra 22°C
Drėgmė 78%
Slėgis 1014 hPa
Matomumas 10 km arba daugiau
Mažai debesys ne aukštis 1000 ft
Išsisklaidę debesys ne aukštis 10000 ft
Su prošvaistėmis ne aukštis 30000 ft

METAR: SEMC 282200Z 23004KT 9999 FEW010 SCT100 BKN300 22/18 Q1014 RMK A2995

Laikas: 17:47 (22:47 UTC)


TAF: trūkstamas

Orai ataskaitas ir orų prognozės (METAR, TAF).

turimą stotys yra geltonos ir raudonos taškus žemėlapyje.

Perkelti pele per norėdami pamatyti stoties vardą.

Tada spustelėkite, norėdami matyti oro stebėjimo ir prognozės.

Norėdami pakeisti žemėlapį: spustelėkite ant žalios mygtukų su juodo kryžiaus žemyn,; žalią mygtuką su brūkšneliu, jei norite nutolinti; arba žalių rodyklių gretimoms žemėlapius.


METAR-TAF: